Ana Sayfa
METAR-TAF:

METAR-TAF

Havaalanları :

Grove, Oklahoma, Amerika Birleşik Devletleri

Enlem: 36-36-19N, Boylam: 094-44-19W, yükseklik: 254 m

Güncel hava durumu gözlemi

Rapor saat 15:15 UTC de 31 dakika önce yapıldı.
Sakin rüzgar
Sıcaklık 24°C
Nem 78%
Basınç 1012 hPa
Görüş mesafesi: 1.6 km
Açık gökyüzü
hafif yağmur, Toz Pusu

METAR: KGMJ 181515Z AUTO 00000KT 1SM -RA HZ CLR 24/20 A2989 RMK AO2 VIS 1/4V5 TSNO

Saat: 10:46 (15:46 UTC)


TAF: eksik

4.000'den fazla havaalanı için hava durumu gözlemleri ve tahminleri (METAR ve TAF raporları).

Kullanılabilir istasyonlar harita üzerinde sarı ve kırmızı noktalarla gösterilir.

İstasyonun adını görmek için fareyi noktanın üzerinde gezdirin.

Sonrasında hava gözlem ve tahminlerini görmek için tıklayın.

Haritayı değiştirmek için: yaklaştırmak için siyah artı işaretli yeşil düğmeye ve uzaklaştırmak için de eksi işaretli düğmeye hızla tıklayın; bitişik haritalar için yeşil okları kullanın.


METAR-TAF: